createdAt,value
2023-04-27T00:00:36.516Z,98813.00
2023-04-27T00:03:07.669Z,98804.00
2023-04-27T00:05:39.729Z,98808.00
2023-04-27T00:08:10.795Z,98801.00
2023-04-27T00:10:41.713Z,98801.00
2023-04-27T00:13:12.635Z,98810.00
2023-04-27T00:15:45.360Z,98805.00
2023-04-27T00:18:16.281Z,98820.00
2023-04-27T00:20:47.196Z,98808.00
2023-04-27T00:23:18.140Z,98814.00
2023-04-27T00:25:49.045Z,98794.00
2023-04-27T00:28:20.021Z,98795.00
2023-04-27T00:30:54.344Z,98793.00
2023-04-27T00:33:25.306Z,98813.00
2023-04-27T00:36:01.372Z,98784.00
2023-04-27T00:38:32.262Z,98785.00
2023-04-27T00:41:04.900Z,98783.00
2023-04-27T00:43:43.886Z,98780.00
2023-04-27T00:46:15.700Z,98778.00
2023-04-27T00:48:46.998Z,98772.00
2023-04-27T00:51:18.010Z,98775.00
2023-04-27T00:53:51.116Z,98779.00
2023-04-27T00:56:22.830Z,98768.00
2023-04-27T00:58:54.012Z,98777.00
2023-04-27T01:01:25.253Z,98781.00
2023-04-27T01:03:56.960Z,98775.00
2023-04-27T01:06:29.822Z,98777.00
2023-04-27T01:09:00.976Z,98776.00
2023-04-27T01:11:33.524Z,98769.00
2023-04-27T01:14:06.975Z,98773.00
2023-04-27T01:16:38.124Z,98775.00
2023-04-27T01:19:09.453Z,98776.00
2023-04-27T01:21:40.897Z,98773.00
2023-04-27T01:24:11.844Z,98784.00
2023-04-27T01:26:42.750Z,98782.00
2023-04-27T01:29:13.837Z,98784.00
2023-04-27T01:31:45.228Z,98777.00
2023-04-27T01:34:16.220Z,98796.00
2023-04-27T01:36:47.153Z,98783.00
2023-04-27T01:39:18.083Z,98786.00
2023-04-27T01:41:49.052Z,98783.00
2023-04-27T01:44:21.147Z,98784.00
2023-04-27T01:46:52.082Z,98777.00
2023-04-27T01:49:23.054Z,98785.00
2023-04-27T01:51:53.976Z,98813.00
2023-04-27T01:54:26.796Z,98791.00
2023-04-27T01:56:59.039Z,98792.00
2023-04-27T01:59:29.900Z,98794.00
2023-04-27T02:02:00.857Z,98797.00
2023-04-27T02:04:31.844Z,98795.00
2023-04-27T02:07:03.524Z,98798.00
2023-04-27T02:09:34.400Z,98808.00
2023-04-27T02:12:06.181Z,98800.00
2023-04-27T02:14:37.112Z,98809.00
2023-04-27T02:17:08.080Z,98809.00
2023-04-27T02:19:39.022Z,98808.00
2023-04-27T02:22:09.913Z,98809.00
2023-04-27T02:24:41.115Z,98809.00
2023-04-27T02:27:12.090Z,98806.00
2023-04-27T02:29:43.411Z,98805.00
2023-04-27T02:32:14.841Z,98816.00
2023-04-27T02:34:46.823Z,98806.00
2023-04-27T02:37:17.709Z,98817.00
2023-04-27T02:39:48.678Z,98819.00
2023-04-27T02:42:19.765Z,98817.00
2023-04-27T02:44:50.674Z,98813.00
2023-04-27T02:47:21.582Z,98817.00
2023-04-27T02:49:53.361Z,98820.00
2023-04-27T02:52:24.257Z,98815.00
2023-04-27T02:54:55.142Z,98818.00
2023-04-27T02:57:26.276Z,98824.00
2023-04-27T02:59:57.188Z,98822.00
2023-04-27T03:02:28.164Z,98831.00
2023-04-27T03:04:59.363Z,98829.00
2023-04-27T03:07:31.705Z,98826.00
2023-04-27T03:10:02.612Z,98820.00
2023-04-27T03:12:33.532Z,98824.00
2023-04-27T03:15:04.947Z,98824.00
2023-04-27T03:17:36.025Z,98826.00
2023-04-27T03:20:09.926Z,98824.00
2023-04-27T03:22:40.926Z,98818.00
2023-04-27T03:25:12.054Z,98823.00
2023-04-27T03:27:43.578Z,98821.00
2023-04-27T03:30:15.024Z,98828.00
2023-04-27T03:32:47.762Z,98831.00
2023-04-27T03:35:18.977Z,98826.00
2023-04-27T03:37:49.872Z,98823.00
2023-04-27T03:40:20.968Z,98836.00
2023-04-27T03:42:51.873Z,98816.00
2023-04-27T03:45:22.765Z,98842.00
2023-04-27T03:47:53.698Z,98818.00
2023-04-27T03:50:24.692Z,98820.00
2023-04-27T03:52:56.086Z,98824.00
2023-04-27T03:55:27.398Z,98827.00
2023-04-27T03:57:58.550Z,98850.00
2023-04-27T04:00:29.468Z,98832.00
2023-04-27T04:03:01.681Z,98830.00
2023-04-27T04:05:32.917Z,98825.00
2023-04-27T04:08:04.752Z,98819.00
2023-04-27T04:10:35.682Z,98820.00
2023-04-27T04:13:06.541Z,98826.00
2023-04-27T04:15:37.438Z,98821.00
2023-04-27T04:18:08.430Z,98826.00
2023-04-27T04:20:39.406Z,98832.00
2023-04-27T04:23:10.498Z,98826.00
2023-04-27T04:25:41.745Z,98825.00
2023-04-27T04:28:12.662Z,98826.00
2023-04-27T04:30:43.883Z,98833.00
2023-04-27T04:33:14.798Z,98829.00
2023-04-27T04:35:46.307Z,98830.00
2023-04-27T04:38:17.296Z,98838.00
2023-04-27T04:40:48.542Z,98840.00
2023-04-27T04:43:19.445Z,98839.00
2023-04-27T04:45:50.981Z,98848.00
2023-04-27T04:48:22.303Z,98840.00
2023-04-27T04:50:53.213Z,98838.00
2023-04-27T04:53:24.128Z,98832.00
2023-04-27T04:55:55.578Z,98842.00
2023-04-27T04:58:26.527Z,98845.00
2023-04-27T05:00:57.446Z,98845.00
2023-04-27T05:03:28.568Z,98851.00
2023-04-27T05:05:59.612Z,98847.00
2023-04-27T05:08:30.564Z,98866.00
2023-04-27T05:11:01.583Z,98843.00
2023-04-27T05:13:32.460Z,98852.00
2023-04-27T05:16:07.830Z,98853.00
2023-04-27T05:18:38.766Z,98833.00
2023-04-27T05:21:17.641Z,98844.00
2023-04-27T05:23:49.165Z,98848.00
2023-04-27T05:26:20.107Z,98846.00
2023-04-27T05:28:51.465Z,98840.00
2023-04-27T05:31:22.449Z,98836.00
2023-04-27T05:33:53.429Z,98846.00
2023-04-27T05:36:24.345Z,98844.00
2023-04-27T05:38:56.002Z,98853.00
2023-04-27T05:41:26.968Z,98855.00
2023-04-27T05:43:57.894Z,98852.00
2023-04-27T05:46:28.973Z,98855.00
2023-04-27T05:49:00.584Z,98848.00
2023-04-27T05:51:33.524Z,98854.00
2023-04-27T05:54:04.538Z,98858.00
2023-04-27T05:56:35.567Z,98861.00
2023-04-27T05:59:06.424Z,98869.00
2023-04-27T06:01:37.408Z,98869.00
2023-04-27T06:04:08.440Z,98874.00
2023-04-27T06:06:39.541Z,98863.00
2023-04-27T06:09:10.448Z,98872.00
2023-04-27T06:11:41.411Z,98873.00
2023-04-27T06:14:12.304Z,98877.00
2023-04-27T06:16:43.550Z,98869.00
2023-04-27T06:19:14.679Z,98876.00
2023-04-27T06:21:46.436Z,98869.00
2023-04-27T06:24:17.586Z,98874.00
2023-04-27T06:26:50.560Z,98881.00
2023-04-27T06:29:21.665Z,98883.00
2023-04-27T06:31:52.654Z,98887.00
2023-04-27T06:34:23.618Z,98892.00
2023-04-27T06:36:54.527Z,98880.00
2023-04-27T06:39:25.492Z,98879.00
2023-04-27T06:41:56.405Z,98880.00
2023-04-27T06:44:27.539Z,98892.00
2023-04-27T06:46:58.443Z,98887.00
2023-04-27T06:49:29.331Z,98887.00
2023-04-27T06:52:03.020Z,98885.00
2023-04-27T06:54:33.920Z,98886.00
2023-04-27T06:57:04.854Z,98893.00
2023-04-27T06:59:35.793Z,98890.00
2023-04-27T07:02:07.719Z,98893.00
2023-04-27T07:04:38.701Z,98894.00
2023-04-27T07:07:09.688Z,98888.00
2023-04-27T07:09:40.644Z,98893.00
2023-04-27T07:12:11.545Z,98890.00
2023-04-27T07:14:43.070Z,98889.00
2023-04-27T07:17:13.981Z,98891.00
2023-04-27T07:19:44.917Z,98882.00
2023-04-27T07:22:16.232Z,98885.00
2023-04-27T07:24:47.507Z,98882.00
2023-04-27T07:27:18.962Z,98886.00
2023-04-27T07:29:49.934Z,98891.00
2023-04-27T07:32:21.986Z,98892.00
2023-04-27T07:34:55.527Z,98886.00
2023-04-27T07:37:26.927Z,98871.00
2023-04-27T07:39:59.561Z,98879.00
2023-04-27T07:42:30.476Z,98881.00
2023-04-27T07:45:01.406Z,98875.00
2023-04-27T07:47:32.398Z,98883.00
2023-04-27T07:50:04.650Z,98875.00
2023-04-27T07:52:36.086Z,98873.00
2023-04-27T07:55:08.212Z,98871.00
2023-04-27T07:57:39.096Z,98880.00
2023-04-27T08:00:11.538Z,98878.00
2023-04-27T08:02:43.004Z,98881.00
2023-04-27T08:05:15.147Z,98882.00
2023-04-27T08:07:46.925Z,98872.00
2023-04-27T08:10:17.983Z,98888.00
2023-04-27T08:12:49.091Z,98871.00
2023-04-27T08:15:21.026Z,98870.00
2023-04-27T08:17:51.955Z,98874.00
2023-04-27T08:20:22.952Z,98866.00
2023-04-27T08:22:53.988Z,98860.00
2023-04-27T08:25:24.897Z,98863.00
2023-04-27T08:27:56.232Z,98855.00
2023-04-27T08:30:27.251Z,98872.00
2023-04-27T08:32:58.238Z,98846.00
2023-04-27T08:35:29.226Z,98845.00
2023-04-27T08:38:00.191Z,98846.00
2023-04-27T08:40:31.266Z,98840.00
2023-04-27T08:43:02.248Z,98834.00
2023-04-27T08:45:33.318Z,98837.00
2023-04-27T08:48:04.765Z,98836.00
2023-04-27T08:50:42.506Z,98832.00
2023-04-27T08:53:23.505Z,98829.00
2023-04-27T08:55:56.835Z,98836.00
2023-04-27T08:58:39.792Z,98833.00
2023-04-27T09:01:10.959Z,98826.00
2023-04-27T09:03:42.750Z,98825.00
2023-04-27T09:06:15.526Z,98832.00
2023-04-27T09:08:50.769Z,98831.00
2023-04-27T09:11:34.807Z,98828.00
2023-04-27T09:14:23.817Z,98833.00
2023-04-27T09:16:57.821Z,98834.00
2023-04-27T09:19:30.445Z,98836.00
2023-04-27T09:22:11.124Z,98831.00
2023-04-27T09:24:52.462Z,98830.00
2023-04-27T09:27:23.536Z,98838.00
2023-04-27T09:29:54.437Z,98835.00
2023-04-27T09:32:25.424Z,98839.00
2023-04-27T09:34:56.355Z,98835.00
2023-04-27T09:37:27.698Z,98843.00
2023-04-27T09:39:58.753Z,98833.00
2023-04-27T09:42:29.833Z,98838.00
2023-04-27T09:45:01.832Z,98830.00
2023-04-27T09:47:34.561Z,98834.00
2023-04-27T09:50:06.828Z,98840.00
2023-04-27T09:52:37.768Z,98828.00
2023-04-27T09:55:13.328Z,98835.00
2023-04-27T09:58:27.275Z,98826.00
2023-04-27T10:01:28.591Z,98817.00
2023-04-27T10:04:49.818Z,98822.00
2023-04-27T10:07:21.359Z,98815.00
2023-04-27T10:09:52.380Z,98815.00
2023-04-27T10:12:28.581Z,98820.00
2023-04-27T10:15:15.405Z,98826.00
2023-04-27T10:17:53.241Z,98822.00
2023-04-27T10:20:33.073Z,98831.00
2023-04-27T10:23:04.747Z,98824.00
2023-04-27T10:25:41.941Z,98821.00
2023-04-27T10:28:23.411Z,98842.00
2023-04-27T10:30:54.421Z,98816.00
2023-04-27T10:33:25.320Z,98818.00
2023-04-27T10:35:59.076Z,98822.00
2023-04-27T10:38:31.456Z,98813.00
2023-04-27T10:41:05.521Z,98810.00
2023-04-27T10:43:36.530Z,98812.00
2023-04-27T10:46:09.582Z,98798.00
2023-04-27T10:48:42.424Z,98812.00
2023-04-27T10:51:17.758Z,98804.00
2023-04-27T10:53:53.869Z,98794.00
2023-04-27T10:56:25.105Z,98791.00
2023-04-27T10:58:56.311Z,98824.00
2023-04-27T11:01:29.488Z,98800.00
2023-04-27T11:04:03.612Z,98801.00
2023-04-27T11:06:44.009Z,98801.00
2023-04-27T11:09:25.851Z,98803.00
2023-04-27T11:11:56.914Z,98797.00
2023-04-27T11:14:27.864Z,98794.00
2023-04-27T11:16:59.265Z,98792.00
2023-04-27T11:19:31.142Z,98795.00
2023-04-27T11:22:07.065Z,98788.00
2023-04-27T11:24:46.930Z,98787.00
2023-04-27T11:27:19.110Z,98792.00
2023-04-27T11:29:50.095Z,98787.00
2023-04-27T11:32:25.868Z,98783.00
2023-04-27T11:34:58.429Z,98778.00
2023-04-27T11:37:30.618Z,98769.00
2023-04-27T11:40:01.628Z,98785.00
2023-04-27T11:42:32.562Z,98781.00
2023-04-27T11:45:08.667Z,98785.00
2023-04-27T11:47:42.450Z,98793.00
2023-04-27T11:50:13.392Z,98796.00
2023-04-27T11:52:49.213Z,98787.00
2023-04-27T11:55:24.645Z,98793.00
2023-04-27T11:57:59.317Z,98791.00
2023-04-27T12:00:30.508Z,98784.00
2023-04-27T12:03:03.468Z,98784.00
2023-04-27T12:05:35.576Z,98778.00
2023-04-27T12:08:06.831Z,98779.00
2023-04-27T12:10:37.766Z,98772.00
2023-04-27T12:13:08.826Z,98764.00
2023-04-27T12:15:40.300Z,98773.00
2023-04-27T12:18:11.523Z,98767.00
2023-04-27T12:20:42.460Z,98766.00
2023-04-27T12:23:13.344Z,98767.00
2023-04-27T12:25:44.388Z,98765.00
2023-04-27T12:28:19.095Z,98765.00
2023-04-27T12:30:50.192Z,98756.00
2023-04-27T12:33:21.995Z,98760.00
2023-04-27T12:35:53.093Z,98753.00
2023-04-27T12:38:23.974Z,98754.00
2023-04-27T12:40:54.997Z,98756.00
2023-04-27T12:43:26.391Z,98756.00
2023-04-27T12:45:57.563Z,98757.00
2023-04-27T12:48:28.606Z,98748.00
2023-04-27T12:50:59.612Z,98750.00
2023-04-27T12:53:30.475Z,98759.00
2023-04-27T12:56:03.087Z,98747.00
2023-04-27T12:58:34.053Z,98764.00
2023-04-27T13:01:07.770Z,98744.00
2023-04-27T13:03:38.871Z,98747.00
2023-04-27T13:06:10.269Z,98740.00
2023-04-27T13:08:41.944Z,98740.00
2023-04-27T13:11:12.954Z,98736.00
2023-04-27T13:13:47.891Z,98738.00
2023-04-27T13:16:21.734Z,98737.00
2023-04-27T13:18:53.886Z,98738.00
2023-04-27T13:21:25.008Z,98732.00
2023-04-27T13:23:58.887Z,98728.00
2023-04-27T13:26:31.061Z,98727.00
2023-04-27T13:29:04.589Z,98740.00
2023-04-27T13:31:36.607Z,98732.00
2023-04-27T13:34:07.866Z,98721.00
2023-04-27T13:36:38.938Z,98718.00
2023-04-27T13:39:10.285Z,98717.00
2023-04-27T13:41:41.343Z,98722.00
2023-04-27T13:44:12.443Z,98721.00
2023-04-27T13:46:43.641Z,98715.00
2023-04-27T13:49:14.575Z,98709.00
2023-04-27T13:51:45.512Z,98716.00
2023-04-27T13:54:16.447Z,98692.00
2023-04-27T13:56:47.647Z,98707.00
2023-04-27T13:59:18.571Z,98701.00
2023-04-27T14:01:49.565Z,98712.00
2023-04-27T14:04:20.561Z,98703.00
2023-04-27T14:06:51.539Z,98698.00
2023-04-27T14:09:24.178Z,98701.00
2023-04-27T14:11:57.360Z,98722.00
2023-04-27T14:14:29.199Z,98707.00
2023-04-27T14:17:00.308Z,98705.00
2023-04-27T14:19:32.221Z,98712.00
2023-04-27T14:22:04.773Z,98707.00
2023-04-27T14:24:35.969Z,98710.00
2023-04-27T14:27:06.841Z,98704.00
2023-04-27T14:29:37.758Z,98704.00
2023-04-27T14:32:09.153Z,98701.00
2023-04-27T14:34:40.093Z,98694.00
2023-04-27T14:37:11.143Z,98695.00
2023-04-27T14:39:45.005Z,98698.00
2023-04-27T14:42:16.354Z,98700.00
2023-04-27T14:44:49.634Z,98702.00
2023-04-27T14:47:20.917Z,98701.00
2023-04-27T14:49:52.068Z,98705.00
2023-04-27T14:52:30.484Z,98699.00
2023-04-27T14:55:01.415Z,98707.00
2023-04-27T14:57:32.403Z,98706.00
2023-04-27T15:00:09.874Z,98712.00
2023-04-27T15:02:41.411Z,98716.00
2023-04-27T15:05:12.369Z,98710.00
2023-04-27T15:07:43.514Z,98711.00
2023-04-27T15:10:14.501Z,98711.00
2023-04-27T15:12:46.271Z,98713.00
2023-04-27T15:15:17.729Z,98708.00
2023-04-27T15:17:48.673Z,98708.00
2023-04-27T15:20:20.242Z,98716.00
2023-04-27T15:22:51.174Z,98711.00
2023-04-27T15:25:22.230Z,98711.00
2023-04-27T15:27:53.102Z,98707.00
2023-04-27T15:30:24.132Z,98706.00
2023-04-27T15:32:55.067Z,98703.00
2023-04-27T15:35:26.433Z,98695.00
2023-04-27T15:37:57.424Z,98697.00
2023-04-27T15:40:28.372Z,98693.00
2023-04-27T15:42:59.283Z,98696.00
2023-04-27T15:45:30.692Z,98700.00
2023-04-27T15:48:01.840Z,98696.00
2023-04-27T15:50:33.192Z,98688.00
2023-04-27T15:53:04.173Z,98692.00
2023-04-27T15:55:35.092Z,98692.00
2023-04-27T15:58:05.968Z,98688.00
2023-04-27T16:00:37.163Z,98691.00
2023-04-27T16:03:11.346Z,98675.00
2023-04-27T16:05:42.479Z,98684.00
2023-04-27T16:08:13.368Z,98671.00
2023-04-27T16:10:44.439Z,98674.00
2023-04-27T16:13:15.308Z,98670.00
2023-04-27T16:15:46.296Z,98669.00
2023-04-27T16:18:17.224Z,98673.00
2023-04-27T16:20:48.155Z,98669.00
2023-04-27T16:23:19.055Z,98659.00
2023-04-27T16:25:50.021Z,98655.00
2023-04-27T16:28:21.003Z,98652.00
2023-04-27T16:30:53.106Z,98643.00
2023-04-27T16:33:24.043Z,98646.00
2023-04-27T16:35:57.166Z,98647.00
2023-04-27T16:38:28.148Z,98655.00
2023-04-27T16:40:59.158Z,98652.00
2023-04-27T16:43:31.420Z,98652.00
2023-04-27T16:46:02.492Z,98652.00
2023-04-27T16:48:33.397Z,98644.00
2023-04-27T16:51:04.565Z,98652.00
2023-04-27T16:53:35.859Z,98653.00
2023-04-27T16:56:07.443Z,98647.00
2023-04-27T16:58:38.373Z,98638.00
2023-04-27T17:01:09.426Z,98642.00
2023-04-27T17:03:40.402Z,98642.00
2023-04-27T17:06:11.611Z,98669.00
2023-04-27T17:08:42.561Z,98652.00
2023-04-27T17:11:14.581Z,98651.00
2023-04-27T17:13:49.580Z,98651.00
2023-04-27T17:16:22.268Z,98651.00
2023-04-27T17:18:54.502Z,98649.00
2023-04-27T17:21:27.558Z,98645.00
2023-04-27T17:23:58.560Z,98648.00
2023-04-27T17:26:29.474Z,98657.00
2023-04-27T17:29:01.591Z,98650.00
2023-04-27T17:31:32.572Z,98656.00
2023-04-27T17:34:03.596Z,98658.00
2023-04-27T17:36:34.984Z,98654.00
2023-04-27T17:39:05.936Z,98653.00
2023-04-27T17:41:37.228Z,98657.00
2023-04-27T17:44:08.297Z,98647.00
2023-04-27T17:46:39.560Z,98659.00
2023-04-27T17:49:10.544Z,98646.00
2023-04-27T17:51:41.524Z,98659.00
2023-04-27T17:54:12.803Z,98652.00
2023-04-27T17:56:44.468Z,98650.00
2023-04-27T17:59:15.517Z,98655.00
2023-04-27T18:01:46.688Z,98648.00
2023-04-27T18:04:17.787Z,98667.00
2023-04-27T18:06:48.884Z,98652.00
2023-04-27T18:09:19.896Z,98647.00
2023-04-27T18:11:51.109Z,98650.00
2023-04-27T18:14:22.013Z,98650.00
2023-04-27T18:16:52.946Z,98657.00
2023-04-27T18:19:23.887Z,98657.00
2023-04-27T18:21:54.783Z,98664.00
2023-04-27T18:24:25.715Z,98665.00
2023-04-27T18:26:56.685Z,98680.00
2023-04-27T18:29:27.765Z,98673.00
2023-04-27T18:32:01.677Z,98667.00
2023-04-27T18:34:33.584Z,98670.00
2023-04-27T18:37:04.504Z,98671.00
2023-04-27T18:39:35.532Z,98678.00
2023-04-27T18:42:06.510Z,98672.00
2023-04-27T18:44:37.967Z,98682.00
2023-04-27T18:47:09.032Z,98667.00
2023-04-27T18:49:40.366Z,98682.00
2023-04-27T18:52:11.637Z,98660.00
2023-04-27T18:54:42.892Z,98660.00
2023-04-27T18:57:13.839Z,98662.00
2023-04-27T18:59:44.863Z,98687.00
2023-04-27T19:02:15.877Z,98666.00
2023-04-27T19:04:52.961Z,98672.00
2023-04-27T19:07:33.679Z,98673.00
2023-04-27T19:10:05.393Z,98675.00
2023-04-27T19:12:36.401Z,98674.00
2023-04-27T19:15:07.837Z,98672.00
2023-04-27T19:17:38.850Z,98672.00
2023-04-27T19:20:10.727Z,98680.00
2023-04-27T19:22:41.659Z,98675.00
2023-04-27T19:25:12.646Z,98681.00
2023-04-27T19:27:43.626Z,98691.00
2023-04-27T19:30:14.682Z,98683.00
2023-04-27T19:32:45.886Z,98692.00
2023-04-27T19:35:17.272Z,98673.00
2023-04-27T19:37:48.197Z,98692.00
2023-04-27T19:40:19.226Z,98687.00
2023-04-27T19:42:50.425Z,98677.00
2023-04-27T19:45:22.385Z,98671.00
2023-04-27T19:47:54.173Z,98666.00
2023-04-27T19:50:25.382Z,98662.00
2023-04-27T19:52:56.416Z,98663.00
2023-04-27T19:55:28.442Z,98667.00
2023-04-27T19:57:59.397Z,98667.00
2023-04-27T20:00:30.620Z,98672.00
2023-04-27T20:03:02.148Z,98690.00
2023-04-27T20:05:33.537Z,98665.00
2023-04-27T20:08:04.785Z,98668.00
2023-04-27T20:10:35.904Z,98666.00
2023-04-27T20:13:07.270Z,98662.00
2023-04-27T20:15:38.269Z,98662.00
2023-04-27T20:18:09.319Z,98663.00
2023-04-27T20:20:42.068Z,98699.00
2023-04-27T20:23:13.013Z,98668.00
2023-04-27T20:25:43.973Z,98673.00
2023-04-27T20:28:14.888Z,98667.00
2023-04-27T20:30:45.958Z,98665.00
2023-04-27T20:33:17.467Z,98661.00
2023-04-27T20:35:48.634Z,98661.00
2023-04-27T20:38:22.455Z,98659.00
2023-04-27T20:40:53.560Z,98666.00
2023-04-27T20:43:24.796Z,98655.00
2023-04-27T20:45:55.912Z,98654.00
2023-04-27T20:48:28.552Z,98653.00
2023-04-27T20:50:59.474Z,98644.00
2023-04-27T20:53:30.734Z,98670.00
2023-04-27T20:56:02.457Z,98654.00
2023-04-27T20:58:33.369Z,98649.00
2023-04-27T21:01:04.360Z,98646.00
2023-04-27T21:03:36.152Z,98642.00
2023-04-27T21:06:07.283Z,98641.00
2023-04-27T21:08:38.559Z,98633.00
2023-04-27T21:11:10.357Z,98629.00
2023-04-27T21:13:41.252Z,98621.00
2023-04-27T21:16:12.220Z,98619.00
2023-04-27T21:18:43.155Z,98620.00
2023-04-27T21:21:14.115Z,98619.00
2023-04-27T21:23:45.620Z,98630.00
2023-04-27T21:26:16.542Z,98629.00
2023-04-27T21:28:47.532Z,98621.00
2023-04-27T21:31:20.567Z,98626.00
2023-04-27T21:33:52.966Z,98617.00
2023-04-27T21:36:24.038Z,98618.00
2023-04-27T21:38:55.141Z,98614.00
2023-04-27T21:41:26.289Z,98607.00
2023-04-27T21:43:57.203Z,98608.00
2023-04-27T21:46:28.164Z,98601.00
2023-04-27T21:48:59.086Z,98604.00
2023-04-27T21:51:30.865Z,98599.00
2023-04-27T21:54:02.057Z,98593.00
2023-04-27T21:56:32.940Z,98589.00
2023-04-27T21:59:04.067Z,98595.00
2023-04-27T22:01:35.064Z,98603.00
2023-04-27T22:04:06.454Z,98594.00
2023-04-27T22:06:38.065Z,98606.00
2023-04-27T22:09:09.031Z,98602.00
2023-04-27T22:11:39.998Z,98607.00
2023-04-27T22:14:11.339Z,98588.00
2023-04-27T22:16:42.314Z,98602.00
2023-04-27T22:19:13.338Z,98578.00
2023-04-27T22:21:45.129Z,98580.00
2023-04-27T22:24:16.232Z,98590.00
2023-04-27T22:26:48.417Z,98592.00
2023-04-27T22:29:19.350Z,98594.00
2023-04-27T22:34:22.131Z,98590.00
2023-04-27T22:36:53.616Z,98591.00
2023-04-27T22:39:25.714Z,98586.00
2023-04-27T22:41:56.620Z,98590.00
2023-04-27T22:44:27.468Z,98583.00
2023-04-27T22:47:00.715Z,98584.00
2023-04-27T22:49:31.874Z,98592.00
2023-04-27T22:52:03.682Z,98589.00
2023-04-27T22:54:34.627Z,98591.00
2023-04-27T22:57:05.688Z,98590.00
2023-04-27T22:59:36.598Z,98585.00
2023-04-27T23:02:07.558Z,98589.00
2023-04-27T23:04:41.115Z,98579.00
2023-04-27T23:07:12.090Z,98583.00
2023-04-27T23:09:43.124Z,98588.00
2023-04-27T23:12:14.223Z,98605.00
2023-04-27T23:14:45.200Z,98592.00
2023-04-27T23:17:16.115Z,98597.00
2023-04-27T23:19:46.995Z,98591.00
2023-04-27T23:22:17.873Z,98593.00
2023-04-27T23:24:48.798Z,98609.00
2023-04-27T23:27:20.585Z,98585.00
2023-04-27T23:29:51.636Z,98589.00
2023-04-27T23:32:22.577Z,98570.00
2023-04-27T23:34:57.181Z,98565.00
2023-04-27T23:37:28.093Z,98564.00
2023-04-27T23:39:59.040Z,98569.00
2023-04-27T23:42:29.929Z,98600.00
2023-04-27T23:45:01.570Z,98567.00
2023-04-27T23:47:33.984Z,98557.00
2023-04-27T23:50:05.871Z,98559.00
2023-04-27T23:52:37.264Z,98546.00
2023-04-27T23:55:08.897Z,98541.00
2023-04-27T23:57:39.735Z,98535.00
